Time;durP1;ratioP1;P1;durP2;ratioP2;P2;SDS_P1;SDS_P2;PMS_P1;PMS_P2;Temp;Humidity;BMP_temperature;BMP_pressure;BME280_temperature;BME280_humidity;BME280_pressure;Samples;Min_cycle;Max_cycle;Signal;HPM_P1;HPM_P2
2022/04/13 00:49:36;;;;;;;15.63;6.75;;;;;;;7.97;100.00;94621.28;6081462;22;20981;-85
2022/04/13 00:52:04;;;;;;;22.95;8.02;;;;;;;7.74;100.00;94627.53;5013109;28;20037;-86
2022/04/13 00:54:30;;;;;;;19.23;8.00;;;;;;;7.72;100.00;94625.16;5019064;28;20457;-85
2022/04/13 00:56:56;;;;;;;21.05;7.90;;;;;;;7.64;100.00;94623.00;5007047;28;20417;-85
2022/04/13 00:59:24;;;;;;;17.65;8.30;;;;;;;7.42;100.00;94626.34;5004007;28;20029;-85
2022/04/13 01:01:51;;;;;;;19.45;7.97;;;;;;;7.31;100.00;94625.44;5002780;28;20445;-86
2022/04/13 01:04:17;;;;;;;18.63;7.43;;;;;;;7.40;100.00;94617.22;5000667;28;20036;-86
2022/04/13 01:06:43;;;;;;;21.38;8.35;;;;;;;7.44;100.00;94619.06;4989087;28;20030;-85
2022/04/13 01:09:12;;;;;;;17.45;7.72;;;;;;;7.52;100.00;94617.88;4998784;28;20033;-85
2022/04/13 01:11:37;;;;;;;17.25;7.30;;;;;;;7.50;100.00;94622.53;4993499;28;20129;-86
2022/04/13 01:14:08;;;;;;;18.02;8.10;;;;;;;7.50;100.00;94619.94;5016997;28;20042;-86
2022/04/13 01:16:35;;;;;;;22.17;7.65;;;;;;;7.36;100.00;94622.13;4983476;28;20038;-86
2022/04/13 01:19:01;;;;;;;18.98;7.72;;;;;;;7.27;100.00;94628.75;4999600;28;20030;-86
2022/04/13 01:22:03;;;;;;;20.70;7.68;;;;;;;7.27;100.00;94626.94;5008361;28;20044;-86
2022/04/13 01:24:29;;;;;;;19.20;8.13;;;;;;;7.19;100.00;94630.75;5008639;28;20049;-85
2022/04/13 01:26:55;;;;;;;14.00;6.22;;;;;;;7.14;100.00;94627.28;5015324;28;20338;-86
2022/04/13 01:29:21;;;;;;;20.98;7.22;;;;;;;7.15;100.00;94619.22;4999373;28;20112;-85
2022/04/13 01:31:46;;;;;;;16.00;6.45;;;;;;;7.20;100.00;94621.09;4999384;28;20081;-86
2022/04/13 01:34:13;;;;;;;18.70;6.88;;;;;;;7.14;100.00;94622.06;4999150;28;20030;-86
2022/04/13 01:36:38;;;;;;;15.88;6.35;;;;;;;7.14;100.00;94628.06;4982944;28;20025;-86
2022/04/13 01:39:05;;;;;;;16.10;6.10;;;;;;;7.23;100.00;94628.44;4982912;28;20133;-86
2022/04/13 01:41:30;;;;;;;10.77;4.93;;;;;;;7.25;100.00;94620.38;4982920;28;20435;-85
2022/04/13 01:43:56;;;;;;;12.07;5.55;;;;;;;7.45;100.00;94623.25;5015405;28;20034;-86
2022/04/13 01:46:22;;;;;;;9.73;4.53;;;;;;;7.62;100.00;94625.06;5016855;28;20427;-86
2022/04/13 01:48:47;;;;;;;13.50;6.03;;;;;;;7.65;100.00;94629.78;4983137;28;20034;-86
2022/04/13 01:51:13;;;;;;;10.93;4.95;;;;;;;7.69;96.61;94622.28;4999394;28;20088;-86
2022/04/13 01:53:38;;;;;;;13.20;5.25;;;;;;;7.69;99.61;94625.66;4999178;28;20040;-85
2022/04/13 01:56:04;;;;;;;9.85;4.85;;;;;;;7.45;100.00;94620.66;4982761;28;20133;-85
2022/04/13 01:58:30;;;;;;;11.38;5.10;;;;;;;7.32;100.00;94627.00;4999108;28;20061;-86
2022/04/13 02:00:56;;;;;;;15.98;5.93;;;;;;;7.14;100.00;94617.63;4998935;28;20061;-86
2022/04/13 02:03:25;;;;;;;13.80;5.35;;;;;;;7.27;100.00;94618.31;5000265;28;20061;-86
2022/04/13 02:05:52;;;;;;;16.33;5.07;;;;;;;7.13;100.00;94615.28;5019880;28;20036;-86
2022/04/13 02:08:22;;;;;;;12.20;5.05;;;;;;;7.08;100.00;94603.75;4986573;28;20386;-86
2022/04/13 02:10:48;;;;;;;13.85;5.07;;;;;;;7.11;100.00;94606.91;5020070;28;20037;-86
2022/04/13 02:13:14;;;;;;;11.50;4.90;;;;;;;7.27;100.00;94610.50;5002634;28;20489;-86
2022/04/13 02:15:40;;;;;;;10.50;4.68;;;;;;;7.15;100.00;94610.63;5019697;28;20026;-86
2022/04/13 02:18:06;;;;;;;12.38;4.80;;;;;;;7.14;100.00;94609.81;4986262;28;20106;-86
2022/04/13 02:20:31;;;;;;;16.02;5.68;;;;;;;7.15;100.00;94610.63;4985924;28;20037;-86
2022/04/13 02:22:57;;;;;;;13.73;5.75;;;;;;;7.20;100.00;94611.47;5002162;28;20034;-86
2022/04/13 02:25:23;;;;;;;15.68;6.68;;;;;;;7.16;100.00;94599.94;4985966;28;20427;-86
2022/04/13 02:27:48;;;;;;;13.27;5.95;;;;;;;7.07;100.00;94596.19;5002137;28;20034;-86
2022/04/13 02:30:15;;;;;;;14.88;6.35;;;;;;;6.98;100.00;94597.59;5002283;28;20033;-86
2022/04/13 02:32:44;;;;;;;14.07;6.05;;;;;;;6.93;100.00;94593.91;4985915;28;20038;-86
2022/04/13 02:35:11;;;;;;;17.88;6.30;;;;;;;6.96;100.00;94591.84;5002112;28;20026;-86
2022/04/13 02:37:38;;;;;;;15.13;6.30;;;;;;;6.90;100.00;94594.38;4985718;28;20238;-85
2022/04/13 02:40:06;;;;;;;13.82;5.93;;;;;;;6.81;100.00;94595.78;5002014;28;20107;-86
2022/04/13 02:42:33;;;;;;;18.83;6.93;;;;;;;6.61;100.00;94589.25;5001736;28;20060;-86
2022/04/13 02:44:59;;;;;;;14.35;6.60;;;;;;;6.64;100.00;94588.78;4985757;28;20033;-87
2022/04/13 02:47:24;;;;;;;20.25;7.05;;;;;;;6.64;100.00;94588.78;5002124;28;20335;-86
2022/04/13 02:49:49;;;;;;;17.23;6.57;;;;;;;6.40;100.00;94587.34;5019066;28;20042;-86
2022/04/13 02:52:15;;;;;;;16.38;6.68;;;;;;;6.43;100.00;94582.47;5019457;28;20037;-86
2022/04/13 02:54:40;;;;;;;18.80;7.60;;;;;;;6.50;100.00;94583.06;4985569;28;20083;-86
2022/04/13 02:57:06;;;;;;;17.80;6.88;;;;;;;6.45;100.00;94577.00;4985150;28;20458;-85
2022/04/13 02:59:32;;;;;;;20.40;7.05;;;;;;;6.56;100.00;94585.78;5019224;28;20044;-86
2022/04/13 03:01:58;;;;;;;15.60;6.35;;;;;;;6.51;100.00;94579.44;5001594;28;20025;-86
2022/04/13 03:04:24;;;;;;;16.20;6.78;;;;;;;6.40;100.00;94580.31;5001659;28;20033;-85
2022/04/13 03:06:49;;;;;;;19.05;6.88;;;;;;;6.30;100.00;94583.53;5033054;28;20095;-86
2022/04/13 03:09:15;;;;;;;18.52;6.88;;;;;;;6.47;100.00;94580.19;5003994;28;20045;-86
2022/04/13 03:11:40;;;;;;;17.95;7.13;;;;;;;6.70;100.00;94583.63;5015945;28;20033;-85
2022/04/13 03:14:06;;;;;;;19.05;6.60;;;;;;;6.96;100.00;94577.00;5010564;28;20454;-85
2022/04/13 03:16:31;;;;;;;19.08;7.00;;;;;;;6.97;100.00;94580.41;5038383;28;20107;-85
2022/04/13 03:18:57;;;;;;;14.55;6.30;;;;;;;6.98;100.00;94577.56;5020886;28;20059;-85
2022/04/13 03:21:22;;;;;;;18.77;8.00;;;;;;;6.99;100.00;94576.53;5002329;28;20033;-86
2022/04/13 03:23:48;;;;;;;15.65;7.20;;;;;;;6.89;100.00;94569.38;4984784;28;20446;-85
2022/04/13 03:26:13;;;;;;;17.85;6.78;;;;;;;6.98;100.00;94571.56;5001140;28;20037;-86
2022/04/13 03:28:39;;;;;;;13.57;6.38;;;;;;;6.76;100.00;94572.28;5018627;28;20030;-85
2022/04/13 03:31:04;;;;;;;15.55;5.88;;;;;;;6.78;100.00;94568.41;5001178;28;20030;-85
2022/04/13 03:33:30;;;;;;;14.18;6.35;;;;;;;6.54;100.00;94573.00;5018438;28;20026;-85
2022/04/13 03:35:55;;;;;;;14.82;6.13;;;;;;;6.47;100.00;94573.13;5000953;28;20038;-86
2022/04/13 03:38:21;;;;;;;15.65;5.82;;;;;;;6.43;100.00;94572.03;4984673;28;20487;-86
2022/04/13 03:40:46;;;;;;;13.52;5.95;;;;;;;6.48;100.00;94571.34;5001014;28;20443;-85
2022/04/13 03:43:11;;;;;;;15.20;6.00;;;;;;;6.59;100.00;94580.88;4984530;28;20085;-86
2022/04/13 03:45:37;;;;;;;17.67;6.30;;;;;;;6.60;100.00;94576.47;5000818;28;20038;-86
2022/04/13 03:48:03;;;;;;;16.42;5.70;;;;;;;6.76;100.00;94569.69;5018131;28;20030;-86
2022/04/13 03:50:28;;;;;;;21.20;7.40;;;;;;;6.85;100.00;94570.84;5000417;28;20033;-86
2022/04/13 03:52:53;;;;;;;19.20;7.63;;;;;;;6.74;100.00;94569.91;5018146;28;20044;-86
2022/04/13 03:55:22;;;;;;;17.45;6.40;;;;;;;6.85;100.00;94572.69;5017926;28;20327;-86
2022/04/13 03:57:50;;;;;;;20.02;7.57;;;;;;;6.50;100.00;94574.50;5000727;28;20033;-86
2022/04/13 04:00:16;;;;;;;25.73;9.27;;;;;;;6.22;100.00;94576.13;4984094;28;20036;-86
2022/04/13 04:02:43;;;;;;;22.02;9.00;;;;;;;6.26;100.00;94579.03;5000242;28;20076;-86
2022/04/13 04:05:14;;;;;;;23.65;9.40;;;;;;;6.36;100.00;94577.41;4998381;28;20045;-86
2022/04/13 04:07:40;;;;;;;18.65;8.20;;;;;;;6.34;100.00;94574.25;5016562;28;20068;-85
2022/04/13 04:10:07;;;;;;;21.38;9.02;;;;;;;6.35;100.00;94585.44;5000357;28;20343;-85
2022/04/13 04:12:39;;;;;;;15.75;6.50;;;;;;;6.23;100.00;94580.28;5017912;28;20041;-86
2022/04/13 04:15:06;;;;;;;21.88;7.63;;;;;;;6.28;100.00;94579.59;5000046;28;20416;-85
2022/04/13 04:17:31;;;;;;;17.08;7.15;;;;;;;6.06;100.00;94580.25;4999856;28;20024;-85
2022/04/13 04:19:57;;;;;;;17.02;7.15;;;;;;;5.87;100.00;94577.81;5000140;28;20026;-85
2022/04/13 04:22:24;;;;;;;18.20;8.25;;;;;;;5.75;100.00;94572.66;5017439;28;20033;-85
2022/04/13 04:24:50;;;;;;;14.40;7.07;;;;;;;5.63;100.00;94579.72;4989088;28;20030;-86
2022/04/13 04:27:15;;;;;;;19.48;7.72;;;;;;;5.85;100.00;94585.06;5033328;28;20974;-86
2022/04/13 04:29:40;;;;;;;19.42;7.97;;;;;;;5.90;100.00;94586.97;4999923;28;20018;-86
2022/04/13 04:32:07;;;;;;;19.80;8.73;;;;;;;5.78;100.00;94587.00;5017595;28;20033;-86
2022/04/13 04:34:33;;;;;;;19.88;8.50;;;;;;;5.73;100.00;94589.50;4983888;28;20414;-86
2022/04/13 04:36:59;;;;;;;21.80;9.27;;;;;;;5.67;100.00;94583.41;4999975;28;20025;-86
2022/04/13 04:39:24;;;;;;;20.80;8.82;;;;;;;5.67;100.00;94588.63;4999596;28;20116;-86
2022/04/13 04:41:50;;;;;;;25.38;9.45;;;;;;;5.74;100.00;94591.09;4983637;28;20463;-86
2022/04/13 04:44:15;;;;;;;21.30;9.32;;;;;;;5.80;100.00;94587.53;4999866;28;20087;-84
2022/04/13 04:46:41;;;;;;;21.50;9.15;;;;;;;5.98;100.00;94591.00;4999680;28;20034;-85
2022/04/13 04:49:07;;;;;;;21.75;9.23;;;;;;;6.24;100.00;94594.88;5017173;28;20041;-84
2022/04/13 04:51:32;;;;;;;33.65;9.77;;;;;;;6.35;100.00;94593.25;4999596;28;20041;-84
2022/04/13 04:53:59;;;;;;;27.13;9.35;;;;;;;6.36;100.00;94595.63;4983490;28;20132;-84
2022/04/13 04:56:25;;;;;;;20.42;9.55;;;;;;;6.32;100.00;94599.72;5008542;28;20037;-85
2022/04/13 04:58:50;;;;;;;20.90;9.15;;;;;;;6.30;100.00;94596.53;5002561;28;20040;-85
2022/04/13 05:01:16;;;;;;;24.73;8.93;;;;;;;6.31;100.00;94598.16;5036609;28;20040;-84
2022/04/13 05:03:43;;;;;;;19.35;8.57;;;;;;;6.38;100.00;94602.41;5018852;28;20056;-84
2022/04/13 05:06:09;;;;;;;22.77;9.88;;;;;;;6.37;100.00;94606.81;5019335;28;20454;-84
2022/04/13 05:08:34;;;;;;;26.17;9.75;;;;;;;6.35;100.00;94611.44;5018826;28;20418;-85
2022/04/13 05:11:02;;;;;;;26.73;9.18;;;;;;;6.42;100.00;94606.09;5018891;28;20120;-84
2022/04/13 05:13:29;;;;;;;26.05;8.50;;;;;;;6.47;100.00;94614.00;5002931;28;20091;-83
2022/04/13 05:15:54;;;;;;;16.65;8.32;;;;;;;6.50;100.00;94609.09;5018795;28;20473;-83
2022/04/13 05:18:20;;;;;;;17.65;8.43;;;;;;;6.75;100.00;94609.78;5018630;28;20029;-84
2022/04/13 05:20:45;;;;;;;16.33;7.55;;;;;;;6.91;100.00;94619.41;5018850;28;20040;-83
2022/04/13 05:23:11;;;;;;;18.20;7.10;;;;;;;7.14;100.00;94609.81;5036734;28;20044;-84
2022/04/13 05:25:36;;;;;;;25.30;8.40;;;;;;;7.15;100.00;94619.22;5036359;28;20076;-83
2022/04/13 05:28:01;;;;;;;21.10;7.60;;;;;;;7.22;100.00;94611.22;5018844;28;20041;-84
2022/04/13 05:30:27;;;;;;;16.13;7.30;;;;;;;7.33;100.00;94612.19;5036670;28;20354;-84
2022/04/13 05:32:58;;;;;;;21.70;8.55;;;;;;;7.56;100.00;94615.59;5017527;28;20064;-83
2022/04/13 05:35:26;;;;;;;19.92;8.20;;;;;;;7.84;100.00;94608.63;5019172;28;20037;-84
2022/04/13 05:37:52;;;;;;;21.08;7.88;;;;;;;7.93;100.00;94613.16;5019770;28;20328;-84
2022/04/13 05:40:17;;;;;;;16.45;7.03;;;;;;;8.06;100.00;94616.41;5040202;28;20040;-84
2022/04/13 05:42:43;;;;;;;18.00;6.85;;;;;;;8.25;100.00;94609.06;5040212;28;20033;-84
2022/04/13 05:45:09;;;;;;;16.25;6.80;;;;;;;8.41;100.00;94617.03;5006159;28;20029;-84
2022/04/13 05:47:35;;;;;;;22.17;7.28;;;;;;;8.80;100.00;94619.50;5022104;28;20037;-84
2022/04/13 05:50:01;;;;;;;16.90;7.45;;;;;;;9.01;100.00;94614.41;5022260;28;20033;-84
2022/04/13 05:52:27;;;;;;;24.50;7.60;;;;;;;9.18;100.00;94620.31;5022373;28;20451;-84
2022/04/13 05:54:53;;;;;;;12.88;6.28;;;;;;;9.39;100.00;94623.03;5022375;28;20029;-84
2022/04/13 05:57:18;;;;;;;17.42;6.88;;;;;;;9.56;100.00;94622.88;5022219;28;20036;-84
2022/04/13 05:59:43;;;;;;;17.60;7.40;;;;;;;9.84;100.00;94630.56;5022202;28;20370;-84
2022/04/13 06:02:09;;;;;;;15.63;6.57;;;;;;;10.03;100.00;94629.06;5022141;28;20034;-84
2022/04/13 06:04:34;;;;;;;13.00;6.50;;;;;;;9.85;100.00;94627.72;5022189;28;20067;-84
2022/04/13 06:07:00;;;;;;;12.68;5.85;;;;;;;9.83;100.00;94626.38;5021901;28;20033;-84
2022/04/13 06:09:26;;;;;;;13.45;6.60;;;;;;;10.01;100.00;94625.91;5022380;28;20033;-84
2022/04/13 06:11:52;;;;;;;14.45;6.43;;;;;;;10.17;100.00;94621.53;5022019;28;20102;-84
2022/04/13 06:14:17;;;;;;;15.43;7.18;;;;;;;10.36;100.00;94625.50;5022156;28;20410;-84
2022/04/13 06:16:43;;;;;;;14.23;6.80;;;;;;;10.22;100.00;94625.19;5021879;28;20035;-84
2022/04/13 06:19:09;;;;;;;15.23;7.45;;;;;;;10.50;100.00;94629.22;5022104;28;20034;-84
2022/04/13 06:21:34;;;;;;;16.58;6.72;;;;;;;10.68;100.00;94627.91;5021879;28;20124;-84
2022/04/13 06:24:00;;;;;;;16.23;7.30;;;;;;;10.33;100.00;94624.97;5039711;28;20434;-84
2022/04/13 06:26:25;;;;;;;20.38;6.78;;;;;;;10.62;98.52;94622.97;5039369;28;20085;-84
2022/04/13 06:28:52;;;;;;;28.80;7.63;;;;;;;10.50;100.00;94633.66;5021936;28;20327;-84
2022/04/13 06:31:18;;;;;;;21.55;7.00;;;;;;;10.25;100.00;94635.16;5022089;28;20349;-83
2022/04/13 06:33:43;;;;;;;12.75;6.38;;;;;;;10.49;100.00;94630.28;5021672;28;20029;-84
2022/04/13 06:36:09;;;;;;;19.35;7.70;;;;;;;9.97;100.00;94632.72;5021773;28;20354;-84
2022/04/13 06:38:35;;;;;;;17.80;7.93;;;;;;;10.27;100.00;94630.47;5021558;28;20179;-84
2022/04/13 06:41:00;;;;;;;13.90;5.95;;;;;;;10.36;100.00;94631.50;5021706;28;20088;-84
2022/04/13 06:43:26;;;;;;;13.93;6.30;;;;;;;10.26;100.00;94634.91;5021819;28;20231;-84
2022/04/13 06:45:54;;;;;;;12.05;6.25;;;;;;;10.33;100.00;94632.84;5039243;28;20037;-84
2022/04/13 06:48:21;;;;;;;14.13;6.53;;;;;;;10.43;100.00;94639.16;5021338;28;20385;-84
2022/04/13 06:50:46;;;;;;;13.95;5.95;;;;;;;10.29;100.00;94637.00;5004132;28;20037;-84
2022/04/13 06:53:14;;;;;;;15.48;6.18;;;;;;;10.48;100.00;94638.38;5005091;28;20131;-84
2022/04/13 06:55:40;;;;;;;16.63;6.22;;;;;;;10.59;100.00;94643.38;5022029;28;20350;-84
2022/04/13 06:58:06;;;;;;;16.63;6.88;;;;;;;10.63;100.00;94640.25;5039087;28;20026;-84
2022/04/13 07:00:32;;;;;;;14.52;6.50;;;;;;;10.72;100.00;94636.84;5021136;28;20035;-84
2022/04/13 07:02:57;;;;;;;13.60;6.45;;;;;;;10.67;100.00;94639.44;5021129;28;20353;-84
2022/04/13 07:05:27;;;;;;;16.75;7.00;;;;;;;10.72;100.00;94649.16;5021107;28;20362;-84
2022/04/13 07:07:53;;;;;;;15.20;6.82;;;;;;;11.04;100.00;94640.25;5020796;28;20127;-84
2022/04/13 07:10:19;;;;;;;16.48;6.32;;;;;;;11.12;100.00;94647.59;5021204;28;20120;-83
2022/04/13 07:12:44;;;;;;;15.18;6.40;;;;;;;11.19;96.96;94642.09;5004690;28;20033;-84
2022/04/13 07:15:11;;;;;;;21.65;7.65;;;;;;;10.99;98.80;94645.50;5020874;28;20033;-84
2022/04/13 07:17:36;;;;;;;17.90;7.05;;;;;;;11.03;100.00;94649.16;5038350;28;20053;-84
2022/04/13 07:20:02;;;;;;;17.77;7.22;;;;;;;11.03;100.00;94644.72;5020822;28;20417;-84
2022/04/13 07:22:28;;;;;;;18.55;8.02;;;;;;;11.32;95.29;94646.00;5020694;28;20044;-84
2022/04/13 07:24:53;;;;;;;20.77;7.60;;;;;;;11.44;100.00;94649.13;5038377;28;20029;-83
2022/04/13 07:27:19;;;;;;;18.23;7.53;;;;;;;11.12;100.00;94649.44;5020559;28;20446;-84
2022/04/13 07:29:44;;;;;;;22.00;8.35;;;;;;;11.24;94.51;94655.19;5020941;28;20029;-84
2022/04/13 07:32:10;;;;;;;14.15;6.75;;;;;;;11.57;96.79;94658.31;5038484;28;20029;-84
2022/04/13 07:34:36;;;;;;;16.33;7.00;;;;;;;11.73;88.44;94658.25;5004381;28;20339;-84
2022/04/13 07:37:03;;;;;;;18.90;7.47;;;;;;;11.87;96.20;94659.28;5037916;28;20022;-84
2022/04/13 07:39:28;;;;;;;25.33;8.45;;;;;;;11.78;88.87;94660.84;5020751;28;20029;-84
2022/04/13 07:41:54;;;;;;;27.58;7.80;;;;;;;11.86;89.83;94654.28;5020581;28;20044;-84
2022/04/13 07:44:19;;;;;;;16.15;7.30;;;;;;;12.02;88.23;94653.19;5038154;28;20176;-84
2022/04/13 07:46:44;;;;;;;19.73;7.65;;;;;;;12.05;90.67;94656.31;5020101;28;20017;-84
2022/04/13 07:49:10;;;;;;;16.48;7.65;;;;;;;12.17;100.00;94667.31;5004082;28;20174;-84
2022/04/13 07:51:35;;;;;;;15.30;7.25;;;;;;;12.06;100.00;94663.19;5020086;28;20025;-84
2022/04/13 07:54:01;;;;;;;17.98;6.40;;;;;;;12.34;96.74;94663.56;5020046;28;20029;-84
2022/04/13 07:56:28;;;;;;;13.55;5.60;;;;;;;12.31;89.66;94664.91;5037527;28;20029;-84
2022/04/13 07:58:53;;;;;;;16.83;6.03;;;;;;;12.51;89.71;94658.75;5020245;28;20021;-84
2022/04/13 08:01:18;;;;;;;12.52;6.20;;;;;;;12.44;90.86;94660.88;5019811;28;20072;-83
2022/04/13 08:03:44;;;;;;;16.02;6.22;;;;;;;12.64;88.98;94665.25;5037627;28;20032;-84
2022/04/13 08:06:11;;;;;;;15.57;6.35;;;;;;;12.55;93.40;94665.03;5037406;28;20021;-83
2022/04/13 08:08:37;;;;;;;12.40;5.00;;;;;;;12.83;87.12;94662.75;5020016;28;20025;-83
2022/04/13 08:11:03;;;;;;;11.55;5.03;;;;;;;12.79;78.28;94669.63;5020146;28;20079;-83
2022/04/13 08:13:28;;;;;;;16.48;6.00;;;;;;;12.88;79.86;94672.47;5019840;28;20025;-83
2022/04/13 08:15:54;;;;;;;13.60;5.05;;;;;;;12.94;81.04;94673.22;5037283;28;20022;-83
2022/04/13 08:18:19;;;;;;;10.98;5.25;;;;;;;13.22;81.54;94676.91;5003507;28;20022;-84
2022/04/13 08:20:45;;;;;;;14.02;5.68;;;;;;;13.18;86.49;94675.13;5019661;28;20120;-84
2022/04/13 08:23:11;;;;;;;13.07;5.63;;;;;;;13.31;76.53;94673.72;5019780;28;20079;-83
2022/04/13 08:25:36;;;;;;;11.10;5.03;;;;;;;13.30;79.11;94686.06;5037142;28;20064;-84
2022/04/13 08:28:01;;;;;;;14.73;5.80;;;;;;;13.03;79.45;94689.94;5019391;28;20029;-83
2022/04/13 08:30:27;;;;;;;13.20;4.90;;;;;;;13.28;71.23;94688.19;5003356;28;20021;-83
2022/04/13 08:32:52;;;;;;;15.25;5.90;;;;;;;13.26;73.84;94682.44;5019700;28;20029;-83
2022/04/13 08:35:18;;;;;;;15.82;4.88;;;;;;;13.37;72.85;94681.28;5019444;28;20040;-84
2022/04/13 08:37:43;;;;;;;12.65;5.43;;;;;;;13.32;92.24;94683.16;5019049;28;20426;-83
2022/04/13 08:40:10;;;;;;;12.43;5.40;;;;;;;13.77;88.01;94683.03;5019668;28;20030;-83
2022/04/13 08:43:03;;;;;;;10.30;5.18;;;;;;;13.78;71.50;94682.00;5019321;28;20021;-84
2022/04/13 08:45:32;;;;;;;17.60;4.85;;;;;;;13.92;70.93;94698.69;5019824;28;20029;-84
2022/04/13 08:48:00;;;;;;;14.52;5.15;;;;;;;13.90;72.71;94687.63;5019128;28;20422;-83
2022/04/13 08:50:27;;;;;;;9.73;4.93;;;;;;;13.91;76.64;94691.84;5019416;28;20052;-83
2022/04/13 08:52:57;;;;;;;12.38;4.95;;;;;;;13.83;77.38;94697.72;5002969;28;20431;-83
2022/04/13 08:55:23;;;;;;;13.43;5.68;;;;;;;13.80;77.13;94695.66;5003054;28;20025;-84
2022/04/13 08:57:50;;;;;;;11.57;5.00;;;;;;;13.95;73.27;94698.13;5019326;28;20033;-84
2022/04/13 09:00:17;;;;;;;13.50;4.90;;;;;;;13.76;77.62;94692.00;5019093;28;20025;-84
2022/04/13 09:02:49;;;;;;;12.95;5.30;;;;;;;14.06;69.29;94687.47;5019167;28;20022;-84
2022/04/13 09:05:16;;;;;;;12.57;6.00;;;;;;;13.91;75.38;94686.56;5036593;28;20028;-84
2022/04/13 09:07:42;;;;;;;12.07;5.00;;;;;;;13.86;80.49;94689.25;5018857;28;20454;-84
2022/04/13 09:10:16;;;;;;;15.93;5.70;;;;;;;14.39;78.49;94688.38;5019472;28;20423;-83
2022/04/13 09:12:41;;;;;;;;;;;;;;;14.18;75.34;94685.22;5019135;28;20350;-83
2022/04/13 09:15:08;;;;;;;12.23;5.47;;;;;;;14.38;69.67;94686.06;5018914;28;19913;-83
2022/04/13 09:17:33;;;;;;;15.82;6.07;;;;;;;14.23;69.00;94681.75;5018962;28;20389;-83
2022/04/13 09:19:59;;;;;;;20.08;5.50;;;;;;;14.15;68.85;94693.69;5019263;28;20040;-84
2022/04/13 09:22:26;;;;;;;13.48;6.15;;;;;;;14.24;76.08;94684.09;5018815;28;20061;-84
2022/04/13 09:24:52;;;;;;;16.52;6.03;;;;;;;14.45;72.07;94681.19;5018788;28;20484;-84
2022/04/13 09:27:18;;;;;;;16.48;5.78;;;;;;;14.44;69.40;94676.22;5018393;28;20112;-84
2022/04/13 09:29:44;;;;;;;18.25;6.05;;;;;;;14.22;68.07;94678.34;5002689;28;20036;-84
2022/04/13 09:32:10;;;;;;;15.57;6.03;;;;;;;14.39;69.09;94685.75;5018813;28;20025;-83
2022/04/13 09:34:35;;;;;;;12.38;6.30;;;;;;;14.49;68.16;94687.50;5018892;28;20435;-83
2022/04/13 09:37:01;;;;;;;11.60;5.05;;;;;;;14.65;71.23;94690.69;5018582;28;20030;-84
2022/04/13 09:39:26;;;;;;;10.13;4.75;;;;;;;14.65;77.23;94688.06;5018669;28;20030;-84
2022/04/13 09:41:52;;;;;;;15.68;5.72;;;;;;;14.94;70.06;94678.47;5018653;28;20439;-83
2022/04/13 09:44:18;;;;;;;13.57;5.10;;;;;;;15.01;70.63;94673.59;5036230;28;20033;-83
2022/04/13 09:46:44;;;;;;;12.32;5.90;;;;;;;14.69;66.18;94681.13;5036166;28;20328;-84
2022/04/13 09:49:17;;;;;;;17.55;5.93;;;;;;;14.61;77.60;94675.72;5018889;28;20354;-83
2022/04/13 09:51:53;;;;;;;13.53;5.67;;;;;;;14.25;69.04;94669.84;5018619;28;20088;-83
2022/04/13 09:54:23;;;;;;;16.48;7.00;;;;;;;14.33;71.08;94679.00;5015635;28;20037;-83
2022/04/13 09:56:49;;;;;;;12.57;6.18;;;;;;;14.55;75.89;94683.72;5018425;28;20454;-84
2022/04/13 09:59:27;;;;;;;13.65;5.90;;;;;;;14.53;73.17;94677.94;5018589;28;20056;-83
2022/04/13 10:01:53;;;;;;;16.85;7.25;;;;;;;14.59;71.38;94683.94;5018492;28;20068;-83
2022/04/13 10:04:29;;;;;;;13.50;7.15;;;;;;;14.77;70.63;94684.25;5019104;28;20108;-84
2022/04/13 10:06:56;;;;;;;22.13;7.60;;;;;;;14.66;73.56;94684.34;5035932;28;20105;-84
2022/04/13 10:09:23;;;;;;;11.68;7.00;;;;;;;14.85;69.22;94678.34;5017805;28;20033;-83
2022/04/13 10:12:03;;;;;;;12.48;6.80;;;;;;;14.84;72.29;94682.81;5018655;28;20125;-83
2022/04/13 10:14:29;;;;;;;15.98;8.00;;;;;;;15.07;73.59;94683.03;5018790;28;20341;-83
2022/04/13 10:16:56;;;;;;;18.35;7.57;;;;;;;15.34;76.51;94683.38;5018645;28;20087;-83
2022/04/13 10:19:22;;;;;;;12.77;7.30;;;;;;;15.35;71.68;94677.81;5018659;28;20037;-83
2022/04/13 10:21:51;;;;;;;22.10;8.15;;;;;;;15.45;67.48;94679.50;5018307;28;20106;-83
2022/04/13 10:24:27;;;;;;;17.05;7.93;;;;;;;15.49;69.25;94671.75;5002247;28;20040;-83
2022/04/13 10:27:15;;;;;;;15.07;8.23;;;;;;;15.15;67.13;94672.88;5021597;28;20348;-83
2022/04/13 10:29:43;;;;;;;18.73;9.10;;;;;;;15.25;72.18;94662.16;5022187;28;20029;-83
2022/04/13 10:32:18;;;;;;;20.85;9.70;;;;;;;15.57;84.13;94667.69;5039326;28;20033;-84
2022/04/13 10:34:49;;;;;;;17.70;8.63;;;;;;;15.87;74.32;94674.28;5039289;28;20035;-84
2022/04/13 10:37:16;;;;;;;19.17;10.05;;;;;;;16.07;68.92;94664.44;5021748;28;20457;-84
2022/04/13 10:39:45;;;;;;;21.60;10.52;;;;;;;16.09;73.07;94664.91;5016915;28;20422;-84
2022/04/13 10:42:12;;;;;;;26.58;12.50;;;;;;;15.66;72.06;94661.44;5021703;28;20029;-84
2022/04/13 10:44:41;;;;;;;20.23;11.30;;;;;;;15.55;72.28;94666.09;5021677;28;20038;-85
2022/04/13 10:47:08;;;;;;;20.25;9.93;;;;;;;15.90;72.80;94665.78;5021271;28;20029;-84
2022/04/13 10:49:41;;;;;;;19.15;11.55;;;;;;;15.69;71.75;94670.63;4988738;28;20465;-85
2022/04/13 10:52:10;;;;;;;20.50;11.85;;;;;;;15.63;78.33;94659.38;5005161;28;20029;-85
2022/04/13 10:54:38;;;;;;;24.15;11.98;;;;;;;15.65;89.71;94651.97;5014252;28;20418;-84
2022/04/13 10:57:06;;;;;;;25.55;12.70;;;;;;;15.77;74.38;94662.03;4985650;28;20084;-84
2022/04/13 10:59:48;;;;;;;24.23;12.98;;;;;;;15.62;73.57;94664.97;5013347;28;20041;-84
2022/04/13 11:02:29;;;;;;;25.65;12.57;;;;;;;15.75;75.14;94669.47;5004875;28;20068;-84
2022/04/13 11:04:58;;;;;;;22.20;12.73;;;;;;;15.90;77.71;94665.00;5002139;28;20032;-84
2022/04/13 11:07:25;;;;;;;30.50;11.77;;;;;;;15.33;72.75;94664.09;5017494;28;20037;-84
2022/04/13 11:09:55;;;;;;;22.08;12.20;;;;;;;15.31;81.82;94660.97;5021001;28;20443;-84
2022/04/13 11:12:21;;;;;;;27.75;12.70;;;;;;;15.45;80.05;94653.09;5005127;28;20326;-83
2022/04/13 11:14:51;;;;;;;25.13;12.35;;;;;;;15.64;87.15;94657.53;5020801;28;20049;-83
2022/04/13 11:17:17;;;;;;;24.63;12.77;;;;;;;15.67;76.11;94656.94;5037209;28;20108;-84
2022/04/13 11:19:43;;;;;;;19.45;11.55;;;;;;;15.84;87.23;94656.38;5038786;28;20069;-84
2022/04/13 11:22:13;;;;;;;19.83;11.27;;;;;;;16.18;86.16;94651.78;5020988;28;20033;-83
2022/04/13 11:24:46;;;;;;;23.65;14.18;;;;;;;15.61;74.10;94664.16;5004846;28;20398;-83
2022/04/13 11:27:12;;;;;;;21.13;11.77;;;;;;;15.67;76.05;94673.59;5038259;28;20431;-84
2022/04/13 11:29:40;;;;;;;23.40;12.63;;;;;;;15.66;76.42;94652.72;5020904;28;20041;-83
2022/04/13 11:32:16;;;;;;;25.75;11.93;;;;;;;15.93;72.65;94659.94;5020563;28;20053;-84
2022/04/13 11:35:03;;;;;;;21.33;10.90;;;;;;;14.76;74.75;94653.66;5004374;28;20060;-84
2022/04/13 11:37:35;;;;;;;19.58;10.85;;;;;;;14.89;76.70;94650.31;5034727;28;20358;-84
2022/04/13 11:40:10;;;;;;;19.00;11.15;;;;;;;15.19;76.98;94648.25;5038049;28;20044;-83
2022/04/13 11:42:37;;;;;;;25.42;10.90;;;;;;;15.63;89.71;94651.44;5020828;28;20036;-84
2022/04/13 11:45:05;;;;;;;18.70;10.35;;;;;;;15.81;71.16;94655.09;5020242;28;20029;-84
2022/04/13 11:47:39;;;;;;;17.42;9.88;;;;;;;15.44;84.40;94653.38;5037984;28;20382;-83
2022/04/13 11:50:18;;;;;;;;;;;;;;;15.42;75.46;94656.31;5020793;28;20457;-84
2022/04/13 11:52:46;;;;;;;15.95;8.98;;;;;;;15.69;90.14;94662.69;5019997;28;20314;-84
2022/04/13 11:55:42;;;;;;;21.52;9.57;;;;;;;15.21;76.72;94655.88;5036821;28;20029;-83
2022/04/13 11:58:07;;;;;;;17.92;9.25;;;;;;;15.66;76.32;94661.44;5020192;28;20328;-83
2022/04/13 12:00:56;;;;;;;18.13;9.68;;;;;;;16.30;91.81;94660.00;5037939;28;20099;-83
2022/04/13 12:03:30;;;;;;;20.55;8.68;;;;;;;16.80;75.12;94664.50;5019835;28;20037;-84
2022/04/13 12:05:59;;;;;;;20.42;9.30;;;;;;;16.20;71.51;94665.50;5030726;28;20643;-83
2022/04/13 12:08:28;;;;;;;20.08;9.38;;;;;;;15.35;74.24;94662.00;5019730;28;20366;-83
2022/04/13 12:11:00;;;;;;;20.50;9.68;;;;;;;15.33;100.00;94669.38;5019798;28;20030;-85
2022/04/13 12:13:29;;;;;;;16.02;9.07;;;;;;;14.85;83.95;94659.88;5019792;28;20029;-84